Time,TemperatureF,DewpointF,PressureIn,WindDirection,WindDirectionDegrees,WindSpeedMPH,WindSpeedGustMPH,Humidity,HourlyPrecipIn,Conditions,Clouds,dailyrainin,SoftwareType,DateUTC
2013-01-02 00:00:00,4.8,-0.6,30.11,West,270,0.0,4.0,78,0.00,,,-99.99,WeatherLink 5.7,2013-01-02 06:00:00,
2013-01-02 00:15:00,5.4,-0.2,30.10,West,270,0.0,2.0,77,0.00,,,-99.99,WeatherLink 5.7,2013-01-02 06:15:00,
2013-01-02 00:30:00,6.0,0.1,30.09,West,270,0.0,3.0,76,0.00,,,-99.99,WeatherLink 5.7,2013-01-02 06:30:00,
2013-01-02 00:45:00,6.3,0.3,30.09,North,-999,0.0,0.0,76,0.00,,,-99.99,WeatherLink 5.7,2013-01-02 06:45:00,
2013-01-02 01:01:00,6.7,0.5,30.08,North,-999,0.0,0.0,75,0.00,,,-99.99,WeatherLink 5.7,2013-01-02 07:01:00,
2013-01-02 01:15:00,7.2,0.9,30.09,West,270,0.0,1.0,75,0.00,,,-99.99,WeatherLink 5.7,2013-01-02 07:15:00,
2013-01-02 01:31:00,7.6,1.3,30.09,West,270,0.0,2.0,75,0.00,,,-99.99,WeatherLink 5.7,2013-01-02 07:31:00,
2013-01-02 01:45:00,8.1,1.5,30.10,West,270,0.0,2.0,74,0.00,,,-99.99,WeatherLink 5.7,2013-01-02 07:45:00,
2013-01-02 02:00:00,8.4,1.8,30.10,West,270,0.0,3.0,74,0.00,,,-99.99,WeatherLink 5.7,2013-01-02 08:00:00,
2013-01-02 02:16:00,9.0,2.4,30.11,West,270,0.0,3.0,74,0.00,,,-99.99,WeatherLink 5.7,2013-01-02 08:16:00,
2013-01-02 02:30:00,9.5,2.9,30.11,WSW,247,0.0,2.0,74,0.00,,,-99.99,WeatherLink 5.7,2013-01-02 08:30:00,
2013-01-02 02:45:00,9.9,3.3,30.10,WSW,247,0.0,1.0,74,0.00,,,-99.99,WeatherLink 5.7,2013-01-02 08:45:00,
2013-01-02 03:00:00,10.5,3.6,30.09,WSW,247,0.0,2.0,73,0.00,,,-99.99,WeatherLink 5.7,2013-01-02 09:00:00,
2013-01-02 03:15:00,10.9,3.9,30.10,North,-999,0.0,0.0,73,0.00,,,-99.99,WeatherLink 5.7,2013-01-02 09:15:00,
2013-01-02 03:30:00,11.2,4.2,30.08,North,-999,0.0,0.0,73,0.00,,,-99.99,WeatherLink 5.7,2013-01-02 09:30:00,
2013-01-02 03:45:00,11.6,4.6,30.08,North,-999,0.0,0.0,73,0.00,,,-99.99,WeatherLink 5.7,2013-01-02 09:45:00,
2013-01-02 04:00:00,11.9,4.9,30.08,North,-999,0.0,0.0,73,0.00,,,-99.99,WeatherLink 5.7,2013-01-02 10:00:00,
2013-01-02 04:15:00,12.1,5.1,30.08,SSE,157,0.0,2.0,73,0.00,,,-99.99,WeatherLink 5.7,2013-01-02 10:15:00,
2013-01-02 04:31:00,12.3,5.3,30.08,North,-999,0.0,0.0,73,0.00,,,-99.99,WeatherLink 5.7,2013-01-02 10:31:00,
2013-01-02 04:45:00,12.4,5.4,30.08,North,-999,0.0,0.0,73,0.00,,,-99.99,WeatherLink 5.7,2013-01-02 10:45:00,
2013-01-02 05:00:00,12.6,5.6,30.07,SSE,157,0.0,1.0,73,0.00,,,-99.99,WeatherLink 5.7,2013-01-02 11:00:00,
2013-01-02 05:15:00,12.8,6.1,30.07,SSE,157,0.0,2.0,74,0.00,,,-99.99,WeatherLink 5.7,2013-01-02 11:15:00,
2013-01-02 05:30:00,12.9,6.2,30.07,North,-999,0.0,0.0,74,0.00,,,-99.99,WeatherLink 5.7,2013-01-02 11:30:00,
2013-01-02 05:45:00,13.1,6.4,30.08,SSE,157,0.0,2.0,74,0.00,,,-99.99,WeatherLink 5.7,2013-01-02 11:45:00,
2013-01-02 06:00:00,12.9,6.5,30.07,SSE,157,0.0,2.0,75,0.00,,,-99.99,WeatherLink 5.7,2013-01-02 12:00:00,
2013-01-02 06:15:00,12.9,6.5,30.08,SSE,157,0.0,2.0,75,0.00,,,-99.99,WeatherLink 5.7,2013-01-02 12:15:00,
2013-01-02 06:30:00,12.6,6.2,30.08,North,-999,0.0,0.0,75,0.00,,,-99.99,WeatherLink 5.7,2013-01-02 12:30:00,
2013-01-02 06:45:00,12.1,5.7,30.09,North,-999,0.0,0.0,75,0.00,,,-99.99,WeatherLink 5.7,2013-01-02 12:45:00,
2013-01-02 07:00:00,11.4,5.0,30.09,North,-999,0.0,0.0,75,0.00,,,-99.99,WeatherLink 5.7,2013-01-02 13:00:00,
2013-01-02 07:15:00,10.7,4.6,30.09,SSE,157,0.0,2.0,76,0.00,,,-99.99,WeatherLink 5.7,2013-01-02 13:15:00,
2013-01-02 07:31:00,10.4,4.3,30.10,SSE,157,0.0,1.0,76,0.00,,,-99.99,WeatherLink 5.7,2013-01-02 13:31:00,
2013-01-02 07:46:00,9.9,3.6,30.10,North,-999,0.0,0.0,75,0.00,,,-99.99,WeatherLink 5.7,2013-01-02 13:46:00,
2013-01-02 08:01:00,9.5,2.9,30.09,SSE,157,0.0,2.0,74,0.00,,,-99.99,WeatherLink 5.7,2013-01-02 14:01:00,
2013-01-02 08:15:00,9.9,3.0,30.09,SSE,157,0.0,2.0,73,0.00,,,-99.99,WeatherLink 5.7,2013-01-02 14:15:00,
2013-01-02 08:30:00,10.0,2.2,30.10,SSE,157,1.0,4.0,70,0.00,,,-99.99,WeatherLink 5.7,2013-01-02 14:30:00,
2013-01-02 08:45:00,10.7,2.2,30.09,SSE,157,0.0,4.0,68,0.00,,,-99.99,WeatherLink 5.7,2013-01-02 14:45:00,
2013-01-02 09:00:00,11.6,2.4,30.09,SSE,157,1.0,4.0,66,0.00,,,-99.99,WeatherLink 5.7,2013-01-02 15:00:00,
2013-01-02 09:15:00,12.6,3.1,30.09,SSE,157,2.0,6.0,65,0.00,,,-99.99,WeatherLink 5.7,2013-01-02 15:15:00,
2013-01-02 09:30:00,13.5,2.2,30.08,SSE,157,3.0,6.0,60,0.00,,,-99.99,WeatherLink 5.7,2013-01-02 15:30:00,
2013-01-02 09:45:00,14.1,2.7,30.08,SSE,157,5.0,9.0,60,0.00,,,-99.99,WeatherLink 5.7,2013-01-02 15:45:00,
2013-01-02 10:01:00,15.4,4.0,30.07,SSE,157,4.0,10.0,60,0.00,,,-99.99,WeatherLink 5.7,2013-01-02 16:01:00,
2013-01-02 10:16:00,16.4,4.6,30.07,SSE,157,3.0,6.0,59,0.00,,,-99.99,WeatherLink 5.7,2013-01-02 16:16:00,
2013-01-02 10:30:00,17.5,5.2,30.07,SSE,157,2.0,11.0,58,0.00,,,-99.99,WeatherLink 5.7,2013-01-02 16:30:00,
2013-01-02 10:45:00,18.4,5.7,30.06,SSE,157,3.0,6.0,57,0.00,,,-99.99,WeatherLink 5.7,2013-01-02 16:45:00,
2013-01-02 11:00:00,19.4,6.6,30.05,SSE,157,4.0,10.0,57,0.00,,,-99.99,WeatherLink 5.7,2013-01-02 17:00:00,
2013-01-02 11:15:00,19.9,7.1,30.04,South,180,5.0,12.0,57,0.00,,,-99.99,WeatherLink 5.7,2013-01-02 17:15:00,
2013-01-02 11:30:00,20.3,7.5,30.03,SSE,157,5.0,12.0,57,0.00,,,-99.99,WeatherLink 5.7,2013-01-02 17:30:00,
2013-01-02 11:45:00,21.0,8.1,30.02,SSE,157,5.0,10.0,57,0.00,,,-99.99,WeatherLink 5.7,2013-01-02 17:45:00,
2013-01-02 12:00:00,21.9,8.6,30.02,SSE,157,4.0,12.0,56,0.00,,,-99.99,WeatherLink 5.7,2013-01-02 18:00:00,
2013-01-02 12:15:00,22.5,8.7,30.00,SSE,157,5.0,11.0,55,0.00,,,-99.99,WeatherLink 5.7,2013-01-02 18:15:00,
2013-01-02 12:30:00,23.3,10.3,30.00,South,180,5.0,12.0,57,0.00,,,-99.99,WeatherLink 5.7,2013-01-02 18:30:00,
2013-01-02 12:46:00,24.4,10.9,29.99,SSE,157,5.0,12.0,56,0.00,,,-99.99,WeatherLink 5.7,2013-01-02 18:46:00,
2013-01-02 13:00:00,25.0,11.5,29.98,SSE,157,5.0,12.0,56,0.00,,,-99.99,WeatherLink 5.7,2013-01-02 19:00:00,
2013-01-02 13:15:00,25.4,12.3,29.98,SSE,157,5.0,13.0,57,0.00,,,-99.99,WeatherLink 5.7,2013-01-02 19:15:00,
2013-01-02 13:30:00,25.8,12.6,29.98,South,180,4.0,8.0,57,0.00,,,-99.99,WeatherLink 5.7,2013-01-02 19:30:00,
2013-01-02 13:45:00,25.8,13.0,29.97,SSE,157,5.0,12.0,58,0.00,,,-99.99,WeatherLink 5.7,2013-01-02 19:45:00,
2013-01-02 14:00:00,26.0,14.0,29.97,SSE,157,4.0,10.0,60,0.00,,,-99.99,WeatherLink 5.7,2013-01-02 20:00:00,
2013-01-02 14:15:00,27.0,14.9,29.97,SSW,202,3.0,10.0,60,0.00,,,-99.99,WeatherLink 5.7,2013-01-02 20:15:00,
2013-01-02 14:31:00,26.6,15.3,29.97,South,180,4.0,11.0,62,0.00,,,-99.99,WeatherLink 5.7,2013-01-02 20:31:00,
2013-01-02 14:45:00,26.6,15.3,29.97,SSE,157,3.0,7.0,62,0.00,,,-99.99,WeatherLink 5.7,2013-01-02 20:45:00,
2013-01-02 15:00:00,26.7,15.4,29.97,SSE,157,2.0,9.0,62,0.00,,,-99.99,WeatherLink 5.7,2013-01-02 21:00:00,
2013-01-02 15:15:00,26.9,15.6,29.97,SSW,202,2.0,7.0,62,0.00,,,-99.99,WeatherLink 5.7,2013-01-02 21:15:00,
2013-01-02 15:30:00,26.3,15.4,29.97,SW,225,1.0,5.0,63,0.00,,,-99.99,WeatherLink 5.7,2013-01-02 21:30:00,
2013-01-02 15:45:00,25.8,15.3,29.97,SW,225,2.0,7.0,64,0.00,,,-99.99,WeatherLink 5.7,2013-01-02 21:45:00,
2013-01-02 16:00:00,25.0,14.9,29.98,SSW,202,2.0,6.0,65,0.00,,,-99.99,WeatherLink 5.7,2013-01-02 22:00:00,
2013-01-02 16:15:00,24.8,15.0,29.97,SW,225,2.0,6.0,66,0.00,,,-99.99,WeatherLink 5.7,2013-01-02 22:15:00,
2013-01-02 16:30:00,24.4,15.3,29.99,WSW,247,1.0,10.0,68,0.00,,,-99.99,WeatherLink 5.7,2013-01-02 22:30:00,
2013-01-02 16:46:00,23.6,14.6,29.99,WSW,247,1.0,5.0,68,0.00,,,-99.99,WeatherLink 5.7,2013-01-02 22:46:00,
2013-01-02 17:00:00,23.2,14.5,29.99,WSW,247,0.0,4.0,69,0.00,,,-99.99,WeatherLink 5.7,2013-01-02 23:00:00,
2013-01-02 17:17:00,22.7,14.4,29.99,North,-999,0.0,0.0,70,0.00,,,-99.99,WeatherLink 5.7,2013-01-02 23:17:00,
2013-01-02 17:32:00,22.5,14.2,29.99,North,-999,0.0,0.0,70,0.00,,,-99.99,WeatherLink 5.7,2013-01-02 23:32:00,
2013-01-02 17:48:00,22.5,14.5,29.99,North,-999,0.0,0.0,71,0.00,,,-99.99,WeatherLink 5.7,2013-01-02 23:48:00,
2013-01-02 18:00:00,22.7,15.0,29.99,North,-999,0.0,0.0,72,0.00,,,-99.99,WeatherLink 5.7,2013-01-03 00:00:00,
2013-01-02 18:15:00,23.0,15.3,30.00,SSW,202,0.0,2.0,72,0.00,,,-99.99,WeatherLink 5.7,2013-01-03 00:15:00,
2013-01-02 18:30:00,23.0,15.6,29.99,North,-999,0.0,0.0,73,0.00,,,-99.99,WeatherLink 5.7,2013-01-03 00:30:00,
2013-01-02 18:45:00,23.2,15.8,29.99,North,-999,0.0,0.0,73,0.00,,,-99.99,WeatherLink 5.7,2013-01-03 00:45:00,
2013-01-02 19:00:00,23.3,16.2,29.99,South,180,0.0,1.0,74,0.00,,,-99.99,WeatherLink 5.7,2013-01-03 01:00:00,
2013-01-02 19:16:00,23.5,16.4,30.00,North,-999,0.0,0.0,74,0.00,,,-99.99,WeatherLink 5.7,2013-01-03 01:16:00,
2013-01-02 19:31:00,23.5,16.7,30.00,North,-999,0.0,0.0,75,0.00,,,-99.99,WeatherLink 5.7,2013-01-03 01:31:00,
2013-01-02 19:45:00,23.5,16.7,30.00,North,-999,0.0,0.0,75,0.00,,,-99.99,WeatherLink 5.7,2013-01-03 01:45:00,
2013-01-02 20:00:00,23.5,16.7,29.99,South,180,0.0,1.0,75,0.00,,,-99.99,WeatherLink 5.7,2013-01-03 02:00:00,
2013-01-02 20:15:00,23.5,17.0,29.99,North,-999,0.0,0.0,76,0.00,,,-99.99,WeatherLink 5.7,2013-01-03 02:15:00,
2013-01-02 20:30:00,23.6,17.4,29.99,North,-999,0.0,0.0,77,0.00,,,-99.99,WeatherLink 5.7,2013-01-03 02:30:00,
2013-01-02 20:45:00,23.9,18.0,29.99,South,180,0.0,1.0,78,0.00,,,-99.99,WeatherLink 5.7,2013-01-03 02:45:00,
2013-01-02 21:01:00,24.1,18.5,29.99,North,-999,0.0,0.0,79,0.00,,,-99.99,WeatherLink 5.7,2013-01-03 03:01:00,
2013-01-02 21:16:00,24.1,18.5,29.99,South,180,0.0,1.0,79,0.00,,,-99.99,WeatherLink 5.7,2013-01-03 03:16:00,
2013-01-02 21:30:00,24.1,18.5,29.98,South,180,0.0,2.0,79,0.00,,,-99.99,WeatherLink 5.7,2013-01-03 03:30:00,
2013-01-02 21:45:00,24.1,18.5,29.98,North,-999,0.0,0.0,79,0.00,,,-99.99,WeatherLink 5.7,2013-01-03 03:45:00,
2013-01-02 22:00:00,24.1,18.8,29.98,South,180,0.0,2.0,80,0.00,,,-99.99,WeatherLink 5.7,2013-01-03 04:00:00,
2013-01-02 22:16:00,24.1,18.8,29.98,North,-999,0.0,0.0,80,0.00,,,-99.99,WeatherLink 5.7,2013-01-03 04:16:00,
2013-01-02 22:30:00,24.1,19.1,29.98,South,180,0.0,1.0,81,0.00,,,-99.99,WeatherLink 5.7,2013-01-03 04:30:00,
2013-01-02 22:45:00,24.4,19.4,29.98,SW,225,0.0,3.0,81,0.00,,,-99.99,WeatherLink 5.7,2013-01-03 04:45:00,
2013-01-02 23:00:00,24.5,19.5,29.98,WSW,247,0.0,5.0,81,0.00,,,-99.99,WeatherLink 5.7,2013-01-03 05:00:00,
2013-01-02 23:15:00,24.5,19.5,29.98,WSW,247,1.0,6.0,81,0.00,,,-99.99,WeatherLink 5.7,2013-01-03 05:15:00,
2013-01-02 23:30:00,24.5,19.5,29.98,WSW,247,1.0,6.0,81,0.00,,,-99.99,WeatherLink 5.7,2013-01-03 05:30:00,
2013-01-02 23:45:00,24.5,19.5,29.98,West,270,3.0,10.0,81,0.00,,,-99.99,WeatherLink 5.7,2013-01-03 05:45:00,